Time;durP1;ratioP1;P1;durP2;ratioP2;P2;SDS_P1;SDS_P2;PMS_P1;PMS_P2;Temp;Humidity;BMP_temperature;BMP_pressure;BME280_temperature;BME280_humidity;BME280_pressure;Samples;Min_cycle;Max_cycle;Signal;HPM_P1;HPM_P2
2023/04/29 00:00:05;;;;;;;21.92;18.95;;;10.30;99.90;;;;;;5115094;28;20509;-62
2023/04/29 00:02:39;;;;;;;21.20;18.05;;;10.30;99.90;;;;;;5115306;28;20067;-60
2023/04/29 00:05:06;;;;;;;21.50;19.20;;;10.20;99.90;;;;;;5115174;28;20096;-62
2023/04/29 00:07:33;;;;;;;22.77;19.33;;;10.20;99.90;;;;;;5115154;28;20063;-61
2023/04/29 00:10:00;;;;;;;21.08;18.83;;;10.20;99.90;;;;;;5115180;28;20484;-62
2023/04/29 00:12:30;;;;;;;22.65;19.35;;;10.20;99.90;;;;;;5114929;28;20074;-62
2023/04/29 00:14:57;;;;;;;21.48;19.13;;;10.20;99.90;;;;;;5115400;28;20040;-62
2023/04/29 00:17:24;;;;;;;21.77;19.48;;;10.10;99.90;;;;;;5115173;28;20441;-63
2023/04/29 00:19:51;;;;;;;22.35;19.08;;;10.10;99.90;;;;;;5114875;28;20126;-62
2023/04/29 00:22:18;;;;;;;22.30;19.88;;;10.10;99.90;;;;;;5114589;28;20067;-62
2023/04/29 00:24:45;;;;;;;22.13;19.70;;;10.10;99.90;;;;;;5113519;28;20044;-61
2023/04/29 00:27:11;;;;;;;21.95;18.65;;;10.00;99.90;;;;;;5114684;28;20066;-62
2023/04/29 00:29:38;;;;;;;21.73;19.20;;;10.00;99.90;;;;;;5113715;28;20356;-62
2023/04/29 00:32:05;;;;;;;20.70;18.50;;;10.00;99.90;;;;;;5113280;28;20067;-62
2023/04/29 00:34:32;;;;;;;21.45;19.15;;;9.90;99.90;;;;;;5095495;27;20059;-62
2023/04/29 00:36:59;;;;;;;22.33;19.55;;;9.90;99.90;;;;;;5093554;28;20040;-62
2023/04/29 00:39:25;;;;;;;22.88;20.33;;;9.90;99.90;;;;;;5094782;28;20510;-62
2023/04/29 00:41:52;;;;;;;22.00;19.70;;;9.90;99.90;;;;;;5093537;28;20040;-62
2023/04/29 00:44:19;;;;;;;22.80;20.33;;;9.90;99.90;;;;;;5076838;28;20402;-61
2023/04/29 00:46:46;;;;;;;23.67;18.42;;;9.90;99.90;;;;;;5093643;28;20036;-62
2023/04/29 00:49:13;;;;;;;22.88;19.30;;;9.80;99.90;;;;;;5093386;28;20094;-63
2023/04/29 00:51:41;;;;;;;21.98;19.67;;;9.80;99.90;;;;;;5108142;28;20479;-62
2023/04/29 00:54:08;;;;;;;22.48;20.05;;;9.70;99.90;;;;;;5107278;28;20047;-63
2023/04/29 00:56:35;;;;;;;23.98;20.33;;;9.70;99.90;;;;;;5112911;28;20043;-62
2023/04/29 00:59:03;;;;;;;23.10;20.60;;;9.70;99.90;;;;;;5096731;28;20046;-62
2023/04/29 01:01:30;;;;;;;21.92;19.58;;;9.60;99.90;;;;;;5095462;28;20048;-62
2023/04/29 01:03:57;;;;;;;23.38;20.13;;;9.60;99.90;;;;;;5094796;28;20467;-62
2023/04/29 01:06:24;;;;;;;23.23;20.83;;;9.60;99.90;;;;;;5093056;28;20043;-61
2023/04/29 01:08:51;;;;;;;23.30;20.80;;;9.60;99.90;;;;;;5093325;28;20044;-60
2023/04/29 01:11:18;;;;;;;22.40;20.00;;;9.50;99.90;;;;;;5093305;28;20044;-62
2023/04/29 01:13:45;;;;;;;23.63;20.52;;;9.50;99.90;;;;;;5110846;28;20054;-62
2023/04/29 01:16:11;;;;;;;25.05;20.20;;;9.50;99.90;;;;;;5114094;28;20040;-62
2023/04/29 01:18:38;;;;;;;22.08;19.77;;;9.40;99.90;;;;;;5113779;28;20159;-62
2023/04/29 01:21:05;;;;;;;23.27;18.92;;;9.40;99.90;;;;;;5112477;28;20050;-62
2023/04/29 01:23:32;;;;;;;20.77;18.58;;;9.40;99.90;;;;;;5113743;28;20036;-63
2023/04/29 01:25:59;;;;;;;21.98;19.58;;;9.30;99.90;;;;;;5112294;28;20031;-62
2023/04/29 01:28:44;;;;;;;21.67;18.93;;;9.30;99.90;;;;;;5114195;28;20535;-63
2023/04/29 01:31:11;;;;;;;21.20;18.85;;;9.20;99.90;;;;;;5112199;28;20410;-62
2023/04/29 01:33:38;;;;;;;21.08;18.75;;;9.20;99.90;;;;;;5112199;28;20047;-62
2023/04/29 01:36:06;;;;;;;20.50;17.48;;;9.10;99.90;;;;;;5094855;28;20043;-62
2023/04/29 01:38:32;;;;;;;21.85;18.85;;;9.10;99.90;;;;;;5113013;28;20122;-62
2023/04/29 01:41:00;;;;;;;22.42;19.45;;;9.10;99.90;;;;;;5112328;28;20473;-62
2023/04/29 01:43:27;;;;;;;21.17;18.73;;;9.10;99.90;;;;;;5111763;28;20122;-62
2023/04/29 01:45:55;;;;;;;21.77;18.55;;;9.10;99.90;;;;;;5112209;28;20167;-63
2023/04/29 01:48:21;;;;;;;20.83;18.60;;;9.10;99.90;;;;;;5113159;28;20043;-61
2023/04/29 01:50:48;;;;;;;22.48;17.40;;;9.00;99.90;;;;;;5113305;28;20493;-62
2023/04/29 01:53:15;;;;;;;20.38;17.67;;;9.00;99.90;;;;;;5111968;28;20043;-63
2023/04/29 01:55:44;;;;;;;20.73;16.52;;;8.90;99.90;;;;;;5112134;28;20051;-62
2023/04/29 01:58:16;;;;;;;18.73;16.75;;;8.90;99.90;;;;;;5112182;28;20042;-61
2023/04/29 02:01:05;;;;;;;18.15;16.02;;;8.80;99.90;;;;;;5111346;28;20494;-61
2023/04/29 02:03:35;;;;;;;18.88;16.67;;;8.90;99.90;;;;;;5111879;28;20058;-62
2023/04/29 02:06:05;;;;;;;22.90;17.50;;;8.80;99.90;;;;;;5111834;28;20040;-61
2023/04/29 02:08:33;;;;;;;22.08;17.83;;;8.80;99.90;;;;;;5095010;28;20139;-62
2023/04/29 02:11:00;;;;;;;20.77;18.30;;;8.70;99.90;;;;;;5111713;28;20131;-62
2023/04/29 02:13:38;;;;;;;19.92;17.73;;;8.70;99.90;;;;;;5113425;28;20053;-62
2023/04/29 02:16:05;;;;;;;23.50;19.45;;;8.60;99.90;;;;;;5111803;28;20057;-62
2023/04/29 02:18:32;;;;;;;22.00;18.85;;;8.60;99.90;;;;;;5092390;28;20112;-62
2023/04/29 02:21:00;;;;;;;24.30;20.05;;;8.60;99.90;;;;;;5108044;28;20095;-62
2023/04/29 02:23:28;;;;;;;22.90;20.00;;;8.50;99.90;;;;;;5105428;28;20084;-62
2023/04/29 02:25:55;;;;;;;21.55;18.98;;;8.50;99.90;;;;;;5092093;28;20052;-62
2023/04/29 02:28:23;;;;;;;20.73;18.48;;;8.50;99.90;;;;;;5093579;28;20055;-63
2023/04/29 02:30:50;;;;;;;20.98;17.75;;;8.40;99.90;;;;;;5091952;28;20048;-62
2023/04/29 02:33:17;;;;;;;20.95;17.67;;;8.50;99.90;;;;;;5075423;28;20093;-62
2023/04/29 02:35:44;;;;;;;21.70;19.38;;;8.50;99.90;;;;;;5092811;28;20047;-62
2023/04/29 02:38:11;;;;;;;26.45;19.63;;;8.50;99.90;;;;;;5091995;28;20111;-62
2023/04/29 02:40:38;;;;;;;21.65;18.45;;;8.50;99.90;;;;;;5112627;28;20043;-62
2023/04/29 02:43:05;;;;;;;21.38;18.75;;;8.40;99.90;;;;;;5099763;28;20117;-62
2023/04/29 02:45:31;;;;;;;25.58;19.90;;;8.40;99.90;;;;;;5091991;28;20059;-61
2023/04/29 02:47:59;;;;;;;21.52;18.40;;;8.40;99.90;;;;;;5095169;28;20040;-62
2023/04/29 02:50:26;;;;;;;23.67;19.55;;;8.30;99.90;;;;;;5097056;28;20142;-63
2023/04/29 02:52:52;;;;;;;24.42;19.52;;;8.30;99.90;;;;;;5097107;28;20040;-62
2023/04/29 02:55:19;;;;;;;22.67;19.65;;;8.30;99.90;;;;;;5095689;28;20471;-61
2023/04/29 02:57:46;;;;;;;24.35;18.85;;;8.20;99.90;;;;;;5095563;28;20067;-63
2023/04/29 03:00:13;;;;;;;21.85;19.55;;;8.20;99.90;;;;;;5096885;28;20471;-61
2023/04/29 03:02:40;;;;;;;23.30;19.60;;;8.20;99.90;;;;;;5095549;28;20040;-61
2023/04/29 03:05:07;;;;;;;23.08;19.33;;;8.10;99.90;;;;;;5095831;28;20394;-62
2023/04/29 03:07:34;;;;;;;22.75;18.15;;;8.10;99.90;;;;;;5095560;28;20042;-62
2023/04/29 03:10:00;;;;;;;22.42;19.02;;;8.10;99.90;;;;;;5095336;28;20068;-63
2023/04/29 03:12:28;;;;;;;21.13;18.50;;;8.10;99.90;;;;;;5103153;28;20039;-63
2023/04/29 03:14:55;;;;;;;22.83;19.20;;;8.10;99.90;;;;;;5116480;28;20043;-62
2023/04/29 03:17:22;;;;;;;21.17;17.95;;;8.00;99.90;;;;;;5114900;28;20135;-62
2023/04/29 03:19:49;;;;;;;22.42;19.83;;;8.00;99.90;;;;;;5114925;28;20104;-62
2023/04/29 03:22:17;;;;;;;23.23;19.38;;;7.90;99.90;;;;;;5114756;28;20036;-62
2023/04/29 03:24:44;;;;;;;24.10;19.77;;;8.00;99.90;;;;;;5114776;28;20040;-61
2023/04/29 03:27:10;;;;;;;22.58;19.42;;;7.90;99.90;;;;;;5114758;28;20447;-62
2023/04/29 03:29:37;;;;;;;23.45;19.90;;;7.90;99.90;;;;;;5114560;28;20440;-61
2023/04/29 03:32:04;;;;;;;24.05;19.33;;;7.90;99.90;;;;;;5114635;28;20043;-62
2023/04/29 03:34:31;;;;;;;21.80;18.40;;;7.90;99.90;;;;;;5114931;28;20084;-62
2023/04/29 03:37:12;;;;;;;20.65;18.33;;;7.80;99.90;;;;;;5099897;28;20097;-62
2023/04/29 03:39:43;;;;;;;21.67;18.08;;;7.80;99.90;;;;;;5114511;28;20047;-62
2023/04/29 03:42:12;;;;;;;21.45;18.17;;;7.70;99.90;;;;;;5114339;28;20043;-62
2023/04/29 03:44:39;;;;;;;22.60;18.52;;;7.70;99.90;;;;;;5114535;28;20032;-62
2023/04/29 03:47:07;;;;;;;22.55;17.83;;;7.70;99.90;;;;;;5114380;28;20078;-62
2023/04/29 03:49:34;;;;;;;21.55;17.98;;;7.70;99.90;;;;;;5097523;28;20035;-61
2023/04/29 03:52:02;;;;;;;23.98;18.30;;;7.70;99.90;;;;;;5114318;28;20052;-62
2023/04/29 03:54:29;;;;;;;25.15;18.35;;;7.70;99.90;;;;;;5114187;28;20414;-62
2023/04/29 03:56:56;;;;;;;20.85;17.98;;;7.70;99.90;;;;;;5115507;28;20051;-62
2023/04/29 03:59:23;;;;;;;21.30;17.15;;;7.70;99.90;;;;;;5096289;28;20055;-62
2023/04/29 04:01:52;;;;;;;21.25;18.50;;;7.60;99.90;;;;;;5113958;28;20132;-61
2023/04/29 04:04:20;;;;;;;20.77;17.60;;;7.60;99.90;;;;;;5114062;28;20036;-61
2023/04/29 04:06:50;;;;;;;23.20;18.33;;;7.60;99.90;;;;;;5113860;28;20036;-61
2023/04/29 04:09:20;;;;;;;20.95;17.58;;;7.50;99.90;;;;;;5113925;28;20524;-62
2023/04/29 04:11:47;;;;;;;20.92;17.92;;;7.50;99.90;;;;;;5096988;28;20104;-63
2023/04/29 04:14:14;;;;;;;21.13;17.58;;;7.50;99.90;;;;;;5113635;28;20055;-62
2023/04/29 04:16:41;;;;;;;22.17;18.08;;;7.50;99.90;;;;;;5113646;28;20039;-63
2023/04/29 04:19:08;;;;;;;23.90;17.42;;;7.50;99.90;;;;;;5113923;28;20077;-62
2023/04/29 04:21:42;;;;;;;24.85;17.50;;;7.40;99.90;;;;;;5113558;28;20411;-61
2023/04/29 04:24:09;;;;;;;22.05;18.85;;;7.50;99.90;;;;;;5113738;28;20105;-61
2023/04/29 04:26:37;;;;;;;21.13;17.98;;;7.50;99.90;;;;;;5113644;28;20039;-63
2023/04/29 04:29:42;;;;;;;22.17;18.38;;;7.40;99.90;;;;;;5107152;28;20043;-62
2023/04/29 04:32:14;;;;;;;22.23;19.00;;;7.40;99.90;;;;;;5113566;28;20455;-62
2023/04/29 04:34:40;;;;;;;22.05;18.60;;;7.40;99.90;;;;;;5113440;28;20048;-62
2023/04/29 04:37:08;;;;;;;24.00;18.98;;;7.40;99.90;;;;;;5113265;28;20130;-63
2023/04/29 04:39:36;;;;;;;20.73;17.70;;;7.40;99.90;;;;;;5113359;28;20063;-62
2023/04/29 04:42:03;;;;;;;21.48;18.50;;;7.30;99.90;;;;;;5113213;28;20039;-62
2023/04/29 04:44:32;;;;;;;22.73;17.95;;;7.30;99.90;;;;;;5096625;28;20053;-61
2023/04/29 04:47:05;;;;;;;20.45;17.73;;;7.30;99.90;;;;;;5113447;28;20043;-62
2023/04/29 04:49:42;;;;;;;20.30;17.38;;;7.20;99.90;;;;;;5113063;28;20507;-63
2023/04/29 04:52:10;;;;;;;22.58;17.75;;;7.30;99.90;;;;;;5113330;28;20120;-62
2023/04/29 04:54:37;;;;;;;20.35;17.00;;;7.30;99.90;;;;;;5112954;28;20035;-62
2023/04/29 04:57:15;;;;;;;20.70;17.35;;;7.20;99.90;;;;;;5108478;28;20098;-62
2023/04/29 04:59:43;;;;;;;20.35;16.77;;;7.30;99.90;;;;;;5102996;28;20447;-61
2023/04/29 05:02:10;;;;;;;20.98;17.50;;;7.30;99.90;;;;;;5114340;28;20039;-63
2023/04/29 05:04:37;;;;;;;21.90;17.50;;;7.30;99.90;;;;;;5112860;28;20046;-63
2023/04/29 05:07:03;;;;;;;19.13;16.75;;;7.30;99.90;;;;;;5114136;28;20081;-62
2023/04/29 05:09:42;;;;;;;23.52;17.90;;;7.40;99.90;;;;;;5112693;28;20036;-63
2023/04/29 05:12:09;;;;;;;18.33;16.33;;;7.50;99.90;;;;;;5109422;27;20040;-64
2023/04/29 05:14:36;;;;;;;19.70;16.77;;;7.50;99.90;;;;;;5111462;28;20043;-63
2023/04/29 05:17:03;;;;;;;19.75;17.13;;;7.50;99.90;;;;;;5095857;28;20039;-63
2023/04/29 05:19:30;;;;;;;23.48;18.05;;;7.60;99.90;;;;;;5113881;28;20040;-64
2023/04/29 05:21:58;;;;;;;20.50;17.42;;;7.60;99.90;;;;;;5096155;28;20050;-63
2023/04/29 05:24:25;;;;;;;20.98;17.52;;;7.60;99.90;;;;;;5112586;28;20035;-63
2023/04/29 05:26:53;;;;;;;22.27;18.05;;;7.70;99.90;;;;;;5112798;28;20036;-63
2023/04/29 05:29:19;;;;;;;20.73;17.83;;;7.80;99.90;;;;;;5112345;28;20038;-62
2023/04/29 05:31:53;;;;;;;19.75;17.17;;;7.90;99.90;;;;;;5112481;28;20050;-63
2023/04/29 05:34:20;;;;;;;20.38;18.10;;;8.10;99.90;;;;;;5112498;28;20043;-63
2023/04/29 05:36:46;;;;;;;19.92;17.30;;;8.10;99.90;;;;;;5113817;28;20043;-63
2023/04/29 05:39:13;;;;;;;21.05;17.15;;;8.20;99.90;;;;;;5112380;28;20052;-62
2023/04/29 05:41:41;;;;;;;21.83;18.70;;;8.30;99.90;;;;;;5095334;28;20063;-62
2023/04/29 05:44:14;;;;;;;22.60;18.83;;;8.40;99.90;;;;;;5092795;28;20551;-63
2023/04/29 05:46:40;;;;;;;22.20;19.30;;;8.30;99.90;;;;;;5092713;28;20059;-62
2023/04/29 05:49:07;;;;;;;21.65;19.00;;;8.30;99.90;;;;;;5092792;28;20054;-63
2023/04/29 05:51:34;;;;;;;23.08;19.73;;;8.30;99.90;;;;;;5093879;28;20429;-63
2023/04/29 05:54:01;;;;;;;21.48;18.55;;;8.30;99.90;;;;;;5092624;28;20036;-62
2023/04/29 05:56:29;;;;;;;23.23;18.73;;;8.40;99.90;;;;;;5094091;28;20040;-63
2023/04/29 05:58:58;;;;;;;20.80;18.38;;;8.50;99.90;;;;;;5105649;28;20036;-62
2023/04/29 06:01:25;;;;;;;21.00;18.55;;;8.70;99.90;;;;;;5111936;28;20414;-62
2023/04/29 06:03:53;;;;;;;24.35;20.13;;;8.70;99.90;;;;;;5089258;28;20051;-63
2023/04/29 06:06:34;;;;;;;23.08;18.70;;;8.80;99.90;;;;;;5097523;28;20101;-63
2023/04/29 06:09:14;;;;;;;22.13;19.00;;;8.90;99.90;;;;;;5092595;28;20052;-63
2023/04/29 06:11:54;;;;;;;22.40;18.75;;;9.10;99.90;;;;;;5094196;28;20044;-63
2023/04/29 06:14:20;;;;;;;24.67;20.63;;;9.10;99.90;;;;;;5113573;28;20100;-63
2023/04/29 06:16:48;;;;;;;23.88;19.92;;;9.20;99.90;;;;;;5112045;28;20089;-63
2023/04/29 06:19:15;;;;;;;25.42;20.55;;;9.20;99.90;;;;;;5113055;28;20574;-63
2023/04/29 06:21:41;;;;;;;22.92;20.35;;;9.40;99.90;;;;;;5113177;28;20093;-63
2023/04/29 06:24:08;;;;;;;23.00;19.48;;;9.40;99.90;;;;;;5116118;28;20626;-63
2023/04/29 06:26:36;;;;;;;24.60;19.15;;;9.40;99.90;;;;;;5115987;28;20044;-63
2023/04/29 06:29:03;;;;;;;23.38;19.15;;;9.50;99.90;;;;;;5115887;28;20039;-63
2023/04/29 06:31:30;;;;;;;21.95;17.38;;;9.60;99.90;;;;;;5116038;28;20043;-63
2023/04/29 06:34:01;;;;;;;21.63;16.67;;;9.70;99.90;;;;;;5115860;28;20127;-64
2023/04/29 06:36:28;;;;;;;19.88;16.13;;;9.70;99.90;;;;;;5115705;28;20044;-62
2023/04/29 06:39:15;;;;;;;21.00;16.63;;;9.80;99.90;;;;;;5115893;28;20035;-62
2023/04/29 06:41:57;;;;;;;20.27;16.60;;;9.80;99.90;;;;;;5117422;28;20071;-63
2023/04/29 06:44:39;;;;;;;22.75;16.30;;;9.90;99.90;;;;;;5117150;28;20384;-62
2023/04/29 06:47:35;;;;;;;19.08;15.88;;;10.00;99.90;;;;;;5107639;28;20039;-62
2023/04/29 06:50:10;;;;;;;19.00;16.27;;;10.00;99.90;;;;;;5115519;28;20137;-63
2023/04/29 06:52:36;;;;;;;18.63;15.32;;;10.10;99.90;;;;;;5116900;28;20040;-63
2023/04/29 06:55:03;;;;;;;18.70;15.18;;;10.10;99.90;;;;;;5115445;28;20051;-62
2023/04/29 06:57:31;;;;;;;21.15;15.82;;;10.10;99.90;;;;;;5115746;28;20116;-62
2023/04/29 06:59:57;;;;;;;20.90;15.43;;;10.30;99.90;;;;;;5099131;28;20087;-64
2023/04/29 07:02:24;;;;;;;18.77;14.95;;;10.30;99.90;;;;;;5116737;28;20492;-62
2023/04/29 07:04:51;;;;;;;18.83;14.90;;;10.40;99.90;;;;;;5115324;28;20048;-63
2023/04/29 07:07:18;;;;;;;18.73;13.82;;;10.50;99.90;;;;;;5116461;28;20122;-63
2023/04/29 07:09:45;;;;;;;18.15;14.77;;;10.60;99.90;;;;;;5116461;28;20475;-62
2023/04/29 07:12:12;;;;;;;19.10;15.23;;;10.70;99.90;;;;;;5116585;28;20044;-63
2023/04/29 07:14:39;;;;;;;18.45;14.10;;;10.70;99.90;;;;;;5116283;28;20402;-63
2023/04/29 07:17:07;;;;;;;17.15;13.98;;;10.90;99.90;;;;;;5115032;28;20577;-63
2023/04/29 07:19:34;;;;;;;16.88;13.25;;;11.00;99.90;;;;;;5114931;28;20044;-64
2023/04/29 07:22:01;;;;;;;16.98;12.75;;;11.10;99.90;;;;;;5114786;28;20146;-62
2023/04/29 07:24:27;;;;;;;14.45;11.85;;;11.10;99.90;;;;;;5098511;28;20036;-63
2023/04/29 07:26:55;;;;;;;15.65;12.60;;;11.20;99.90;;;;;;5105729;28;20035;-63
2023/04/29 07:29:21;;;;;;;16.45;11.95;;;11.20;99.90;;;;;;5115991;28;20035;-62
2023/04/29 07:31:48;;;;;;;17.02;11.98;;;11.30;99.90;;;;;;5116120;27;20100;-60
2023/04/29 07:34:15;;;;;;;14.43;10.75;;;11.40;99.90;;;;;;5113357;28;20130;-62
2023/04/29 07:36:42;;;;;;;14.80;10.82;;;11.50;99.90;;;;;;5098054;28;20477;-63
2023/04/29 07:39:11;;;;;;;15.52;11.18;;;11.60;99.90;;;;;;5114806;28;20050;-65
2023/04/29 07:41:39;;;;;;;13.93;11.18;;;11.60;99.90;;;;;;5114613;28;20424;-62
2023/04/29 07:44:06;;;;;;;13.98;10.82;;;11.60;99.90;;;;;;5105130;28;20059;-61
2023/04/29 07:46:34;;;;;;;14.10;10.57;;;11.60;99.90;;;;;;5095025;28;20036;-62
2023/04/29 07:49:01;;;;;;;14.75;10.95;;;11.60;99.90;;;;;;5095069;28;20428;-62
2023/04/29 07:51:27;;;;;;;13.50;10.80;;;11.50;99.90;;;;;;5094560;28;20043;-63
2023/04/29 07:53:54;;;;;;;15.60;11.05;;;11.50;99.90;;;;;;5094651;28;20077;-63
2023/04/29 07:56:22;;;;;;;14.10;10.23;;;11.50;99.90;;;;;;5094538;28;20131;-63
2023/04/29 07:58:49;;;;;;;14.30;10.77;;;11.50;99.90;;;;;;5093810;28;20044;-61
2023/04/29 08:01:16;;;;;;;16.33;11.18;;;11.50;99.90;;;;;;5095668;28;20056;-62
2023/04/29 08:03:44;;;;;;;14.30;10.48;;;11.50;99.90;;;;;;5095529;28;20070;-62
2023/04/29 08:06:12;;;;;;;12.98;10.18;;;11.50;99.90;;;;;;5114006;28;20130;-61
2023/04/29 08:08:40;;;;;;;14.02;10.50;;;11.60;99.90;;;;;;5114237;28;20486;-62
2023/04/29 08:11:08;;;;;;;13.38;10.10;;;11.60;99.90;;;;;;5096220;28;20048;-62
2023/04/29 08:13:36;;;;;;;11.43;9.30;;;11.60;99.90;;;;;;5115485;28;20040;-62
2023/04/29 08:16:03;;;;;;;11.15;9.88;;;11.70;99.90;;;;;;5104406;28;20126;-62
2023/04/29 08:18:30;;;;;;;12.55;10.27;;;11.70;99.90;;;;;;5094332;28;20051;-62
2023/04/29 08:20:56;;;;;;;15.10;10.27;;;11.70;99.90;;;;;;5078460;28;20389;-62
2023/04/29 08:23:23;;;;;;;11.85;9.65;;;11.70;99.90;;;;;;5115165;28;20115;-62
2023/04/29 08:25:51;;;;;;;13.68;9.95;;;11.70;99.90;;;;;;5115211;28;20066;-62
2023/04/29 08:28:18;;;;;;;13.00;9.65;;;11.70;99.90;;;;;;5111346;27;20085;-62
2023/04/29 08:30:45;;;;;;;12.32;9.68;;;11.80;99.90;;;;;;5114910;28;20356;-63
2023/04/29 08:33:12;;;;;;;12.10;9.85;;;11.90;99.90;;;;;;5110150;28;20402;-63
2023/04/29 08:35:39;;;;;;;12.27;9.40;;;11.90;99.90;;;;;;5114985;28;20097;-62
2023/04/29 08:38:06;;;;;;;11.95;8.82;;;11.90;99.90;;;;;;5111700;28;20102;-62
2023/04/29 08:40:32;;;;;;;13.63;8.75;;;11.80;99.90;;;;;;5114988;28;20035;-64
2023/04/29 08:42:59;;;;;;;10.88;8.48;;;11.80;99.90;;;;;;5113381;28;20039;-63
2023/04/29 08:45:26;;;;;;;36.72;10.95;;;11.90;99.90;;;;;;5114439;28;20403;-63
2023/04/29 08:47:53;;;;;;;53.33;12.05;;;12.00;99.90;;;;;;5107477;28;20097;-63
2023/04/29 08:50:20;;;;;;;16.58;9.00;;;12.10;99.90;;;;;;5101144;28;20054;-62
2023/04/29 08:52:47;;;;;;;12.63;8.60;;;12.20;99.90;;;;;;5094601;28;20356;-61
2023/04/29 08:55:13;;;;;;;9.98;7.43;;;12.40;99.90;;;;;;5114545;28;20040;-61
2023/04/29 08:57:40;;;;;;;11.70;8.60;;;12.50;99.90;;;;;;5112633;28;20039;-65
2023/04/29 09:00:07;;;;;;;24.08;9.77;;;12.60;99.90;;;;;;5094406;28;20440;-62
2023/04/29 09:02:34;;;;;;;11.13;8.43;;;12.60;99.90;;;;;;5094040;28;20044;-62
2023/04/29 09:05:02;;;;;;;10.02;8.13;;;12.60;99.90;;;;;;5094360;28;20040;-61
2023/04/29 09:07:29;;;;;;;9.55;7.75;;;12.60;99.90;;;;;;5093456;28;20063;-61
2023/04/29 09:09:57;;;;;;;9.95;7.75;;;12.70;99.90;;;;;;5107860;27;20043;-61
2023/04/29 09:12:25;;;;;;;11.23;8.27;;;12.80;99.90;;;;;;5114611;28;20070;-62
2023/04/29 09:14:51;;;;;;;8.80;7.60;;;12.80;99.90;;;;;;5107321;28;20047;-63
2023/04/29 09:17:19;;;;;;;11.90;9.00;;;12.80;99.90;;;;;;5114542;28;20093;-62
2023/04/29 09:19:46;;;;;;;11.32;8.80;;;12.70;99.90;;;;;;5110476;28;20043;-63
2023/04/29 09:22:12;;;;;;;11.02;7.82;;;12.70;99.90;;;;;;5113931;28;20047;-63
2023/04/29 09:24:39;;;;;;;9.30;7.38;;;12.70;99.90;;;;;;5113791;28;20085;-61
2023/04/29 09:27:08;;;;;;;9.60;6.97;;;12.80;99.90;;;;;;5113008;28;20039;-62
2023/04/29 09:29:37;;;;;;;11.13;7.55;;;12.80;99.90;;;;;;5112450;28;20134;-62
2023/04/29 09:32:04;;;;;;;9.40;7.30;;;13.00;99.90;;;;;;5109854;27;20115;-62
2023/04/29 09:34:31;;;;;;;10.88;7.53;;;13.00;99.90;;;;;;5113604;28;20108;-62
2023/04/29 09:36:58;;;;;;;11.10;7.20;;;13.00;99.90;;;;;;5113645;28;20043;-62
2023/04/29 09:39:25;;;;;;;8.75;7.20;;;13.00;99.90;;;;;;5108478;28;20085;-63
2023/04/29 09:41:51;;;;;;;10.15;7.05;;;13.00;99.90;;;;;;5113850;28;20046;-62
2023/04/29 09:44:18;;;;;;;9.50;7.63;;;13.10;99.90;;;;;;5113515;28;20143;-63
2023/04/29 09:46:45;;;;;;;9.57;7.85;;;13.20;99.90;;;;;;5113450;28;20100;-63
2023/04/29 09:49:12;;;;;;;10.90;7.45;;;13.30;99.90;;;;;;5112188;28;20035;-63
2023/04/29 09:51:38;;;;;;;9.15;7.07;;;13.20;99.90;;;;;;5112034;28;20058;-63
2023/04/29 09:54:05;;;;;;;8.55;6.22;;;13.10;99.90;;;;;;5111649;28;20101;-62
2023/04/29 09:56:32;;;;;;;10.85;7.45;;;13.10;99.90;;;;;;5112435;28;20134;-62
2023/04/29 09:58:59;;;;;;;10.40;7.40;;;13.10;99.90;;;;;;5113451;28;20047;-64
2023/04/29 10:01:26;;;;;;;8.52;6.82;;;13.20;99.90;;;;;;5107241;28;20044;-63
2023/04/29 10:03:53;;;;;;;11.13;7.30;;;13.20;99.90;;;;;;5113510;28;20075;-62
2023/04/29 10:06:20;;;;;;;9.13;6.45;;;13.20;99.90;;;;;;5112217;28;20035;-61
2023/04/29 10:08:47;;;;;;;7.95;6.00;;;13.20;99.90;;;;;;5110283;28;20104;-62
2023/04/29 10:11:14;;;;;;;9.60;6.45;;;13.20;99.90;;;;;;5113191;28;20035;-62
2023/04/29 10:13:41;;;;;;;9.32;6.40;;;13.40;99.90;;;;;;5111991;28;20096;-62
2023/04/29 10:16:08;;;;;;;10.35;6.50;;;13.40;99.90;;;;;;5113007;28;20055;-62
2023/04/29 10:18:36;;;;;;;9.05;7.00;;;13.60;99.90;;;;;;5110125;28;20083;-62
2023/04/29 10:21:03;;;;;;;10.05;7.05;;;13.60;99.90;;;;;;5101873;28;20510;-62
2023/04/29 10:23:30;;;;;;;9.32;7.22;;;13.50;99.90;;;;;;5093634;28;20441;-63
2023/04/29 10:25:57;;;;;;;10.60;6.68;;;13.50;99.90;;;;;;5098140;28;20038;-63
2023/04/29 10:28:24;;;;;;;7.03;5.70;;;13.50;99.90;;;;;;5113282;28;20044;-63
2023/04/29 10:30:51;;;;;;;9.32;6.82;;;13.60;99.90;;;;;;5112963;28;20038;-63
2023/04/29 10:33:17;;;;;;;8.90;6.97;;;13.60;99.90;;;;;;5112158;28;20067;-63
2023/04/29 10:35:44;;;;;;;10.02;6.57;;;13.60;99.90;;;;;;5112955;28;20040;-64
2023/04/29 10:38:11;;;;;;;10.18;6.82;;;13.60;99.90;;;;;;5112978;28;20042;-64
2023/04/29 10:40:38;;;;;;;10.95;6.57;;;13.50;99.90;;;;;;5112851;28;20044;-63
2023/04/29 10:43:05;;;;;;;8.60;6.15;;;13.60;99.90;;;;;;5111632;28;20039;-64
2023/04/29 10:45:34;;;;;;;7.50;5.82;;;13.80;99.90;;;;;;5113132;28;20483;-63
2023/04/29 10:48:01;;;;;;;8.30;5.97;;;13.90;99.90;;;;;;5113040;28;20505;-63
2023/04/29 10:50:28;;;;;;;8.80;6.00;;;14.00;99.90;;;;;;5107981;28;20097;-61
2023/04/29 10:52:56;;;;;;;9.07;5.72;;;14.00;99.90;;;;;;5111700;28;20061;-61
2023/04/29 10:55:23;;;;;;;7.68;6.03;;;14.00;99.90;;;;;;5111586;28;20040;-62
2023/04/29 10:57:50;;;;;;;8.40;5.93;;;14.00;99.90;;;;;;5109450;28;20130;-63
2023/04/29 11:00:17;;;;;;;7.70;5.40;;;14.10;99.90;;;;;;5112521;28;20059;-63
2023/04/29 11:02:43;;;;;;;6.60;5.55;;;14.30;99.90;;;;;;5112651;28;20027;-62
2023/04/29 11:05:11;;;;;;;11.55;6.80;;;14.40;99.90;;;;;;5094849;28;20160;-63
2023/04/29 11:07:38;;;;;;;9.55;6.00;;;14.40;99.90;;;;;;5094124;28;20052;-64
2023/04/29 11:10:05;;;;;;;9.80;7.05;;;14.40;99.90;;;;;;5105004;28;20043;-62
2023/04/29 11:12:31;;;;;;;8.35;6.53;;;14.50;99.90;;;;;;5116623;28;20050;-64
2023/04/29 11:15:03;;;;;;;8.43;6.28;;;14.50;99.90;;;;;;5112770;28;20489;-62
2023/04/29 11:17:30;;;;;;;8.10;6.55;;;14.40;99.90;;;;;;5116279;28;20048;-63
2023/04/29 11:19:57;;;;;;;8.43;6.65;;;14.40;99.90;;;;;;5113142;28;20051;-62
2023/04/29 11:22:24;;;;;;;9.10;6.60;;;14.40;99.90;;;;;;5101612;28;20059;-62
2023/04/29 11:24:51;;;;;;;7.53;5.90;;;14.40;99.90;;;;;;5104636;28;20043;-63
2023/04/29 11:27:19;;;;;;;10.55;5.90;;;14.40;99.90;;;;;;5115035;28;20447;-63
2023/04/29 11:29:46;;;;;;;9.70;6.43;;;14.50;99.90;;;;;;5115042;28;20051;-62
2023/04/29 11:32:13;;;;;;;7.50;6.07;;;14.60;99.90;;;;;;5116260;28;20047;-62
2023/04/29 11:34:40;;;;;;;9.05;7.00;;;14.60;99.90;;;;;;5110674;28;20528;-62
2023/04/29 11:37:07;;;;;;;9.20;6.47;;;14.50;99.90;;;;;;5116156;28;20046;-62
2023/04/29 11:39:34;;;;;;;8.38;6.05;;;14.60;99.90;;;;;;5112117;27;20098;-62
2023/04/29 11:42:01;;;;;;;10.02;6.63;;;14.60;99.90;;;;;;5115836;28;20039;-64
2023/04/29 11:44:28;;;;;;;11.43;6.60;;;14.60;99.90;;;;;;5115665;28;20043;-62
2023/04/29 11:46:55;;;;;;;9.40;6.32;;;14.60;99.90;;;;;;5115363;28;20123;-62
2023/04/29 11:49:22;;;;;;;10.07;6.93;;;14.70;99.90;;;;;;5115843;28;20138;-62
2023/04/29 11:51:48;;;;;;;8.13;6.60;;;14.70;99.90;;;;;;5115643;28;20032;-63
2023/04/29 11:54:15;;;;;;;9.13;6.50;;;14.90;99.90;;;;;;5113504;28;20172;-63
2023/04/29 11:56:42;;;;;;;9.93;6.88;;;14.80;99.90;;;;;;5114281;28;20092;-63
2023/04/29 11:59:09;;;;;;;9.43;6.35;;;14.80;99.90;;;;;;5114273;28;20100;-64
2023/04/29 12:01:36;;;;;;;7.65;5.13;;;14.80;99.90;;;;;;5095505;28;20059;-62
2023/04/29 12:04:04;;;;;;;5.88;4.40;;;14.90;99.90;;;;;;5095462;28;20036;-63
2023/04/29 12:06:31;;;;;;;5.88;5.22;;;15.00;99.90;;;;;;5110101;28;20048;-63
2023/04/29 12:08:59;;;;;;;6.85;5.05;;;15.00;99.90;;;;;;5115462;28;20089;-63
2023/04/29 12:11:27;;;;;;;6.30;5.13;;;15.00;99.90;;;;;;5115237;28;20040;-62
2023/04/29 12:13:54;;;;;;;6.70;4.90;;;15.00;99.90;;;;;;5101450;28;20039;-61
2023/04/29 12:16:22;;;;;;;5.80;4.65;;;15.10;99.90;;;;;;5115790;28;20047;-62
2023/04/29 12:18:49;;;;;;;5.82;4.60;;;15.10;99.90;;;;;;5114798;28;20050;-63
2023/04/29 12:21:16;;;;;;;6.18;4.60;;;15.30;99.90;;;;;;5108105;28;20081;-63
2023/04/29 12:23:43;;;;;;;7.18;5.03;;;15.30;99.90;;;;;;5115045;28;20039;-62
2023/04/29 12:26:10;;;;;;;7.13;4.43;;;15.30;99.90;;;;;;5112027;28;20504;-61
2023/04/29 12:28:37;;;;;;;6.75;4.13;;;15.40;99.90;;;;;;5114937;28;20031;-62
2023/04/29 12:31:03;;;;;;;7.72;4.35;;;15.50;99.90;;;;;;5099962;28;20098;-61
2023/04/29 12:33:30;;;;;;;7.47;4.63;;;15.50;99.90;;;;;;5095440;28;20046;-61
2023/04/29 12:35:57;;;;;;;5.88;4.85;;;15.60;99.90;;;;;;5099915;28;20112;-61
2023/04/29 12:38:26;;;;;;;7.57;4.63;;;15.60;99.90;;;;;;5114654;28;20047;-64
2023/04/29 12:40:53;;;;;;;6.88;4.30;;;15.70;99.90;;;;;;5114632;28;20039;-62